Antares — DFJQ — position and weather

sailwx.info

Track history (hours):
 
Tides and Currents Weather Stations Pressure Air Temp Water Temp Dewpoint Dewpoint Depression Visibility Wind Speed Wind Dir Waves Ship Positions

Antares

Last reported at 2017-Nov-20 00:28 UTC. Time now 2017-Nov-20 14:02 UTC.
Position N 57°42' E 010°38'.

Length 79 m; draft 5.6 m.

Type: Ship. MMSI: 218777000.

Date/timePositionNaut miles runAvg speedWind from/ knotsBaromVisibWave heightAir tempDewpointWater temp
2017-Nov-20 00:28N 57°42' E 010°38'0 0.1
2017-Nov-19 23:31N 57°41' E 010°38'0 0.1
2017-Nov-19 23:19N 57°41' E 010°38'0 0.1
2017-Nov-19 22:58N 57°41' E 010°38'0 0.0
2017-Nov-19 22:25N 57°41' E 010°38'0 0.0
2017-Nov-19 21:55N 57°41' E 010°38'0 0.0
2017-Nov-19 21:22N 57°41' E 010°38'0 0.0
2017-Nov-19 20:49N 57°41' E 010°38'0 0.0
2017-Nov-19 20:28N 57°41' E 010°38'0 0.0
2017-Nov-19 19:52N 57°41' E 010°38'0 0.0
2017-Nov-19 19:28N 57°41' E 010°38'0 0.0
2017-Nov-19 18:58N 57°41' E 010°38'0 0.0
2017-Nov-19 18:22N 57°41' E 010°38'0 0.0
2017-Nov-19 17:55N 57°41' E 010°38'0 0.0
2017-Nov-19 17:25N 57°41' E 010°38'0 0.0
2017-Nov-19 16:13N 57°41' E 010°38'0 0.1
2017-Nov-19 15:52N 57°41' E 010°38'0 0.0
2017-Nov-19 15:25N 57°41' E 010°38'0 0.0
2017-Nov-19 14:58N 57°41' E 010°38'0 0.1
2017-Nov-19 14:30N 57°41' E 010°38'1 1.2
2017-Nov-19 14:00N 57°41' E 010°36'1 1.7
2017-Nov-19 13:28N 57°42' E 010°35'0 0.0
2017-Nov-19 12:58N 57°42' E 010°35'0 0.0
2017-Nov-19 11:58N 57°42' E 010°35'0 0.0
2017-Nov-19 11:22N 57°42' E 010°35'0 0.0
2017-Nov-19 10:52N 57°42' E 010°35'0 0.0
2017-Nov-19 10:19N 57°42' E 010°35'0 0.0
2017-Nov-19 09:55N 57°42' E 010°35'0 0.0
2017-Nov-19 09:28N 57°42' E 010°35'0 0.0
2017-Nov-19 08:46N 57°42' E 010°35'0 0.0
2017-Nov-19 08:28N 57°42' E 010°35'0 0.2
2017-Nov-19 07:57N 57°42' E 010°35'2 3.4
2017-Nov-19 07:30N 57°41' E 010°38'1 2.8
2017-Nov-19 07:00N 57°42' E 010°35'0 0.2
2017-Nov-19 06:26N 57°42' E 010°35'0 0.0
2017-Nov-19 05:53N 57°42' E 010°35'0 0.0
2017-Nov-19 05:29N 57°42' E 010°35'0 0.0
2017-Nov-19 04:56N 57°42' E 010°35'0 0.0
2017-Nov-19 04:29N 57°42' E 010°35'0 0.0
2017-Nov-19 03:56N 57°42' E 010°35'0 0.0
2017-Nov-19 03:23N 57°42' E 010°35'0 0.0
2017-Nov-19 02:59N 57°42' E 010°35'0 0.0
2017-Nov-19 02:29N 57°42' E 010°35'0 0.0
2017-Nov-19 01:56N 57°42' E 010°35'0 0.1
2017-Nov-19 01:20N 57°42' E 010°35'0 0.1
2017-Nov-19 00:59N 57°42' E 010°35'0 0.0
2017-Nov-19 00:26N 57°42' E 010°35'0 0.0
2017-Nov-18 23:59N 57°42' E 010°35'0 0.0
2017-Nov-18 23:17N 57°42' E 010°35'0 0.0
2017-Nov-18 22:56N 57°42' E 010°35'0 0.0
2017-Nov-18 22:17N 57°42' E 010°35'0 0.0
2017-Nov-18 21:59N 57°42' E 010°35'0 0.0
2017-Nov-18 21:29N 57°42' E 010°35'0 0.0
2017-Nov-18 20:56N 57°42' E 010°35'0 0.0
2017-Nov-18 20:26N 57°42' E 010°35'0 0.0
2017-Nov-18 19:56N 57°42' E 010°35'0 0.0
2017-Nov-18 19:29N 57°42' E 010°35'0 0.0
2017-Nov-18 18:56N 57°42' E 010°35'0 0.0
2017-Nov-18 18:29N 57°42' E 010°35'0 0.0
2017-Nov-18 17:56N 57°42' E 010°35'0 0.0
2017-Nov-18 17:26N 57°42' E 010°35'0 0.0
2017-Nov-18 16:59N 57°42' E 010°35'0 0.0
2017-Nov-18 16:26N 57°42' E 010°35'0 0.0
2017-Nov-18 15:59N 57°42' E 010°35'0 0.0
2017-Nov-18 15:23N 57°42' E 010°35'0 0.2
2017-Nov-18 14:56N 57°42' E 010°35'0 0.0
2017-Nov-18 14:29N 57°42' E 010°35'0 0.0
2017-Nov-18 13:44N 57°42' E 010°35'0 0.0
2017-Nov-18 13:29N 57°42' E 010°35'0 0.0
2017-Nov-18 12:59N 57°42' E 010°35'0 0.0
2017-Nov-18 12:26N 57°42' E 010°35'0 0.1
2017-Nov-18 11:51N 57°42' E 010°35'0 1.1
2017-Nov-18 11:26N 57°42' E 010°36'0 0.0
2017-Nov-18 10:56N 57°42' E 010°36'0 0.0
2017-Nov-18 10:29N 57°42' E 010°36'0 0.0
2017-Nov-18 09:56N 57°42' E 010°36'0 0.0
2017-Nov-18 09:23N 57°42' E 010°36'0 0.1
2017-Nov-18 09:00N 57°42' E 010°36'0 0.4
2017-Nov-18 08:24N 57°42' E 010°36'0 0.0
2017-Nov-18 08:00N 57°42' E 010°36'0 0.0
2017-Nov-18 07:31N 57°42' E 010°36'0 0.0
2017-Nov-18 06:45N 57°42' E 010°36'1 3.8
2017-Nov-18 06:30N 57°42' E 010°37'3 5.0
2017-Nov-18 05:57N 57°42' E 010°42'0 0.0
2017-Nov-18 05:30N 57°42' E 010°42'0 0.0
2017-Nov-18 04:57N 57°42' E 010°42'0 0.0
2017-Nov-18 03:48N 57°42' E 010°42'0 0.1
2017-Nov-18 03:21N 57°42' E 010°42'0 0.0
2017-Nov-18 02:54N 57°42' E 010°42'0 0.1
2017-Nov-18 02:30N 57°42' E 010°42'0 0.0
2017-Nov-18 02:00N 57°42' E 010°42'0 0.0
2017-Nov-18 01:17N 57°42' E 010°42'0 0.2
2017-Nov-18 01:00N 57°42' E 010°43'1 1.8
2017-Nov-18 00:30N 57°42' E 010°41'3 4.8
2017-Nov-17 23:55N 57°42' E 010°36'0 0.0
2017-Nov-17 23:19N 57°42' E 010°36'0 0.2
2017-Nov-17 22:49N 57°42' E 010°35'0 0.0
2017-Nov-17 22:25N 57°42' E 010°35'0 0.0
2017-Nov-17 21:58N 57°42' E 010°35'0 0.0
2017-Nov-17 21:13N 57°42' E 010°35'0 0.0
2017-Nov-17 20:55N 57°42' E 010°35'0 0.0
2017-Nov-17 20:25N 57°42' E 010°35'0 0.0
2017-Nov-17 19:43N 57°42' E 010°35'0 0.0
2017-Nov-17 19:25N 57°42' E 010°35'0 0.0
2017-Nov-17 18:58N 57°42' E 010°35'0 0.0
2017-Nov-17 18:25N 57°42' E 010°35'0 0.0
2017-Nov-17 17:55N 57°42' E 010°35'0 0.0
2017-Nov-17 17:16N 57°42' E 010°35'0 0.0
2017-Nov-17 16:58N 57°42' E 010°35'0 0.0
2017-Nov-17 16:28N 57°42' E 010°35'0 0.0
2017-Nov-17 15:58N 57°42' E 010°35'0 0.0
2017-Nov-17 15:25N 57°42' E 010°35'0 0.0
2017-Nov-17 14:55N 57°42' E 010°35'0 0.0
2017-Nov-17 14:28N 57°42' E 010°35'0 0.0
2017-Nov-17 13:58N 57°42' E 010°35'0 0.1
2017-Nov-17 13:30N 57°42' E 010°35'1 1.9
2017-Nov-17 13:00N 57°43' E 010°35'0 0.0
2017-Nov-17 12:17N 57°43' E 010°35'0 0.0
2017-Nov-17 11:59N 57°43' E 010°35'0 0.0
2017-Nov-17 11:29N 57°43' E 010°35'0 0.0
2017-Nov-17 10:53N 57°43' E 010°35'0 0.0
2017-Nov-17 10:26N 57°43' E 010°35'0 0.0
2017-Nov-17 09:59N 57°43' E 010°35'0 0.0
2017-Nov-17 09:29N 57°43' E 010°35'0 0.0
2017-Nov-17 08:59N 57°43' E 010°35'0 0.0
2017-Nov-17 08:23N 57°43' E 010°35'0 0.0
2017-Nov-17 07:59N 57°43' E 010°35'0 0.0
2017-Nov-17 07:29N 57°43' E 010°35'0 0.0
2017-Nov-17 06:59N 57°43' E 010°35'0 0.0
2017-Nov-17 06:29N 57°43' E 010°35'0 0.0
2017-Nov-17 05:56N 57°43' E 010°35'0 0.0
2017-Nov-17 05:29N 57°43' E 010°35'0 0.0
2017-Nov-17 04:59N 57°43' E 010°35'0 0.0
2017-Nov-17 04:20N 57°43' E 010°35'0 0.0
2017-Nov-17 03:53N 57°43' E 010°35'0 0.0
2017-Nov-17 03:26N 57°43' E 010°35'0 0.0
2017-Nov-17 02:53N 57°43' E 010°35'0 0.0
2017-Nov-17 02:23N 57°43' E 010°35'0 0.0
2017-Nov-17 01:59N 57°43' E 010°35'0 0.0
2017-Nov-17 01:14N 57°43' E 010°35'0 0.0
2017-Nov-17 00:59N 57°43' E 010°35'0 0.0
2017-Nov-17 00:26N 57°43' E 010°35'0 0.0
2017-Nov-16 23:53N 57°43' E 010°35'0 0.0
2017-Nov-16 23:29N 57°43' E 010°35'0 0.0
2017-Nov-16 22:59N 57°43' E 010°35'0 0.0
2017-Nov-16 22:29N 57°43' E 010°35'0 0.0
2017-Nov-16 21:41N 57°43' E 010°35'0 0.0
2017-Nov-16 21:29N 57°43' E 010°35'0 0.0
2017-Nov-16 20:59N 57°43' E 010°35'0 0.0
2017-Nov-16 20:11N 57°43' E 010°35'0 0.0
2017-Nov-16 19:59N 57°43' E 010°35'0 0.0
2017-Nov-16 19:26N 57°43' E 010°35'0 0.0
2017-Nov-16 18:56N 57°43' E 010°35'0 0.0
2017-Nov-16 18:29N 57°43' E 010°35'0 0.0
2017-Nov-16 17:59N 57°43' E 010°35'0 0.0
2017-Nov-16 17:26N 57°43' E 010°35'0 0.0
2017-Nov-16 16:53N 57°43' E 010°35'0 0.0
2017-Nov-16 16:26N 57°43' E 010°35'0 0.0
2017-Nov-16 15:50N 57°43' E 010°35'0 0.0
2017-Nov-16 15:29N 57°43' E 010°35'0 0.0
2017-Nov-16 14:53N 57°43' E 010°35'0 0.0
2017-Nov-16 14:26N 57°43' E 010°35'0 0.0
2017-Nov-16 13:47N 57°43' E 010°35'0 0.0
2017-Nov-16 13:26N 57°43' E 010°35'0 0.0
2017-Nov-16 12:56N 57°43' E 010°35'0 0.0
2017-Nov-16 12:23N 57°43' E 010°35'0 0.0
2017-Nov-16 11:59N 57°43' E 010°35'0 0.0
2017-Nov-16 11:29N 57°43' E 010°35'0 0.0
2017-Nov-16 10:59N 57°43' E 010°35'0 0.0
2017-Nov-16 10:29N 57°43' E 010°35'0 0.0
2017-Nov-16 09:59N 57°43' E 010°35'0 0.0
2017-Nov-16 09:29N 57°43' E 010°35'0 0.0
2017-Nov-16 08:50N 57°43' E 010°35'0 0.0
2017-Nov-16 08:17N 57°43' E 010°35'0 0.0
2017-Nov-16 07:59N 57°43' E 010°35'0 0.0
2017-Nov-16 07:29N 57°43' E 010°35'0 0.0
2017-Nov-16 06:57N 57°43' E 010°35'1 1.6
2017-Nov-16 06:30N 57°42' E 010°36'1 1.9
2017-Nov-16 05:49N 57°41' E 010°36'0 0.0
2017-Nov-16 05:28N 57°41' E 010°36'0 0.0
2017-Nov-16 04:52N 57°41' E 010°36'0 0.0
2017-Nov-16 04:25N 57°41' E 010°36'0 0.0
2017-Nov-16 03:16N 57°41' E 010°36'0 0.0
2017-Nov-16 02:22N 57°41' E 010°36'0 0.1
2017-Nov-16 01:55N 57°41' E 010°36'1 1.5
2017-Nov-16 01:30N 57°41' E 010°37'1 1.0
2017-Nov-16 00:53N 57°41' E 010°38'0 0.0
2017-Nov-16 00:29N 57°41' E 010°38'0 0.0
2017-Nov-15 22:38N 57°41' E 010°38'0 0.0
2017-Nov-15 22:26N 57°41' E 010°39'0 0.0
2017-Nov-15 21:47N 57°41' E 010°38'0 0.0
2017-Nov-15 21:30N 57°41' E 010°39'1 1.9
2017-Nov-15 21:00N 57°40' E 010°37'0 0.1
2017-Nov-15 20:29N 57°40' E 010°37'0 0.0
2017-Nov-15 19:56N 57°40' E 010°37'0 0.0
2017-Nov-15 19:26N 57°40' E 010°37'0 0.0
2017-Nov-15 18:56N 57°40' E 010°37'0 0.0
2017-Nov-15 18:29N 57°40' E 010°37'0 0.0
2017-Nov-15 17:50N 57°40' E 010°37'0 0.0
2017-Nov-15 17:29N 57°40' E 010°37'0 0.0
2017-Nov-15 16:56N 57°40' E 010°37'0 0.0
2017-Nov-15 16:20N 57°40' E 010°37'0 0.0
2017-Nov-15 15:56N 57°40' E 010°37'0 0.0
2017-Nov-15 15:08N 57°40' E 010°37'0 0.0
2017-Nov-15 14:53N 57°40' E 010°37'0 0.0
2017-Nov-15 14:11N 57°40' E 010°37'0 0.1
2017-Nov-15 13:59N 57°40' E 010°37'0 0.0
2017-Nov-15 13:29N 57°40' E 010°37'1 2.4
2017-Nov-15 13:00N 57°40' E 010°39'0 0.0
2017-Nov-15 12:13N 57°40' E 010°39'0 0.0
2017-Nov-15 11:58N 57°40' E 010°39'0 0.0
2017-Nov-15 11:17N 57°40' E 010°39'0 0.6
2017-Nov-15 11:00N 57°41' E 010°39'1 1.0
2017-Nov-15 10:17N 57°41' E 010°38'0 0.0
2017-Nov-15 09:56N 57°41' E 010°38'0 0.0
2017-Nov-15 08:59N 57°41' E 010°38'0 0.0
2017-Nov-15 08:29N 57°41' E 010°38'0 0.5
2017-Nov-15 08:00N 57°41' E 010°39'1 1.2
2017-Nov-15 07:30N 57°42' E 010°39'1 1.4
2017-Nov-15 07:00N 57°42' E 010°37'2 2.6
2017-Nov-15 06:25N 57°43' E 010°35'0 0.0
2017-Nov-15 05:49N 57°43' E 010°35'0 0.0
2017-Nov-15 05:07N 57°43' E 010°35'0 0.0
2017-Nov-15 04:58N 57°43' E 010°35'0 0.0
2017-Nov-15 04:19N 57°43' E 010°35'0 0.0
2017-Nov-15 03:58N 57°43' E 010°35'0 0.0
2017-Nov-15 03:28N 57°43' E 010°35'0 0.0
2017-Nov-15 02:55N 57°43' E 010°35'0 0.0
2017-Nov-15 02:25N 57°43' E 010°35'0 0.0
2017-Nov-15 01:58N 57°43' E 010°35'0 0.0
2017-Nov-15 01:28N 57°43' E 010°35'0 0.0
2017-Nov-15 00:49N 57°43' E 010°35'0 0.0
2017-Nov-15 00:28N 57°43' E 010°35'0 0.0
2017-Nov-14 23:55N 57°43' E 010°35'0 0.0
2017-Nov-14 22:22N 57°43' E 010°35'0 0.0
2017-Nov-14 21:58N 57°43' E 010°35'0 0.0
2017-Nov-14 21:28N 57°43' E 010°35'0 0.0
2017-Nov-14 20:55N 57°43' E 010°35'0 0.0
2017-Nov-14 20:25N 57°43' E 010°35'0 0.0
2017-Nov-14 19:58N 57°43' E 010°35'0 0.0
2017-Nov-14 19:28N 57°43' E 010°35'0 0.0
2017-Nov-14 18:52N 57°43' E 010°35'0 0.0
2017-Nov-14 18:25N 57°43' E 010°35'0 0.0
2017-Nov-14 17:46N 57°43' E 010°35'0 0.0
2017-Nov-14 17:28N 57°43' E 010°35'0 0.0
2017-Nov-14 16:52N 57°43' E 010°35'0 0.0
2017-Nov-14 16:28N 57°43' E 010°35'0 0.0
2017-Nov-14 15:37N 57°43' E 010°35'0 0.0
2017-Nov-14 15:22N 57°43' E 010°35'0 0.0
2017-Nov-14 14:55N 57°43' E 010°35'0 0.0
2017-Nov-14 14:25N 57°43' E 010°35'0 0.0
2017-Nov-14 13:07N 57°43' E 010°35'0 0.0
2017-Nov-14 12:43N 57°43' E 010°35'0 0.0
2017-Nov-14 12:25N 57°43' E 010°35'0 0.0
2017-Nov-14 11:58N 57°43' E 010°35'0 0.0
2017-Nov-14 11:25N 57°43' E 010°35'0 0.0
2017-Nov-14 10:55N 57°43' E 010°35'0 0.0
2017-Nov-14 10:22N 57°43' E 010°35'0 0.0
2017-Nov-14 09:52N 57°43' E 010°35'0 0.0
2017-Nov-14 09:04N 57°43' E 010°35'0 0.0
2017-Nov-14 08:55N 57°43' E 010°35'0 0.0
2017-Nov-14 08:22N 57°43' E 010°35'0 0.0
2017-Nov-14 07:58N 57°43' E 010°35'0 0.0
2017-Nov-14 07:22N 57°43' E 010°35'0 0.1
2017-Nov-14 07:00N 57°43' E 010°35'1 1.9
2017-Nov-14 06:30N 57°42' E 010°37'0 0.7
2017-Nov-14 05:54N 57°42' E 010°36'0 0.0
2017-Nov-14 05:30N 57°42' E 010°36'0 0.0
2017-Nov-14 05:00N 57°42' E 010°36'0 0.1
2017-Nov-14 04:21N 57°42' E 010°36'1 2.1
2017-Nov-14 04:00N 57°41' E 010°37'0 0.0
2017-Nov-14 03:21N 57°41' E 010°37'0 0.0
2017-Nov-14 03:00N 57°41' E 010°37'0 0.0
2017-Nov-14 02:12N 57°41' E 010°37'0 0.0
2017-Nov-14 01:54N 57°41' E 010°37'0 0.0
2017-Nov-14 01:24N 57°41' E 010°37'0 0.3
2017-Nov-14 01:00N 57°41' E 010°37'1 1.2
2017-Nov-14 00:29N 57°41' E 010°36'0 0.0
2017-Nov-13 23:59N 57°41' E 010°36'0 0.0
2017-Nov-13 23:29N 57°41' E 010°36'0 0.0
2017-Nov-13 22:32N 57°41' E 010°36'0 0.0
2017-Nov-13 21:56N 57°41' E 010°36'0 0.0
2017-Nov-13 01:42N 57°41' E 010°36'0 0.0
2017-Nov-13 01:30N 57°41' E 010°36'0 0.0
2017-Nov-13 00:51N 57°41' E 010°36'0 0.0
2017-Nov-13 00:30N 57°41' E 010°36'0 0.0
2017-Nov-12 23:54N 57°41' E 010°36'0 0.0
2017-Nov-12 22:57N 57°41' E 010°36'0 0.0
2017-Nov-12 22:30N 57°41' E 010°36'0 0.0
2017-Nov-12 21:57N 57°41' E 010°36'0 0.0
2017-Nov-12 21:30N 57°41' E 010°36'0 0.0
2017-Nov-12 21:00N 57°41' E 010°36'1 1.2
2017-Nov-12 20:17N 57°40' E 010°37'0 0.1
2017-Nov-12 19:59N 57°40' E 010°37'0 0.0
2017-Nov-12 19:26N 57°40' E 010°37'0 0.1
2017-Nov-12 18:59N 57°40' E 010°37'0 0.1
2017-Nov-12 18:31N 57°40' E 010°37'1 1.6
2017-Nov-12 18:00N 57°41' E 010°36'0 0.1
2017-Nov-12 17:30N 57°41' E 010°36'0 0.0
2017-Nov-12 16:57N 57°41' E 010°36'0 0.0
2017-Nov-12 16:24N 57°41' E 010°36'0 0.0
2017-Nov-12 15:54N 57°41' E 010°36'0 0.0
2017-Nov-12 15:30N 57°41' E 010°36'0 0.1
2017-Nov-12 15:00N 57°41' E 010°36'0 0.9
2017-Nov-12 14:30N 57°41' E 010°36'0 0.1
2017-Nov-12 13:53N 57°41' E 010°36'0 0.1
2017-Nov-12 13:29N 57°41' E 010°36'0 0.0
2017-Nov-12 12:47N 57°41' E 010°36'0 0.0
2017-Nov-12 12:29N 57°41' E 010°36'0 0.0
2017-Nov-12 11:41N 57°41' E 010°36'0 0.0
2017-Nov-12 11:23N 57°41' E 010°36'0 0.0
2017-Nov-12 10:56N 57°41' E 010°36'0 0.0
2017-Nov-12 10:29N 57°41' E 010°36'0 0.0
2017-Nov-12 09:59N 57°41' E 010°36'0 0.0
2017-Nov-12 09:29N 57°41' E 010°36'0 0.0
2017-Nov-12 08:35N 57°41' E 010°36'0 0.0
2017-Nov-12 08:26N 57°41' E 010°36'0 0.0
2017-Nov-12 07:53N 57°41' E 010°36'0 0.0
2017-Nov-12 07:29N 57°41' E 010°36'0 0.0
2017-Nov-12 06:53N 57°41' E 010°36'0 0.0
2017-Nov-12 06:29N 57°41' E 010°36'0 0.0
2017-Nov-12 05:56N 57°41' E 010°36'0 0.0
2017-Nov-12 05:29N 57°41' E 010°36'0 0.0
2017-Nov-12 04:59N 57°41' E 010°36'0 0.1
2017-Nov-12 04:30N 57°41' E 010°36'1 1.3
2017-Nov-12 03:57N 57°41' E 010°37'0 0.0
2017-Nov-12 03:30N 57°41' E 010°37'0 0.0
2017-Nov-12 02:57N 57°41' E 010°37'0 0.0
2017-Nov-12 02:27N 57°41' E 010°37'0 0.0
2017-Nov-12 02:00N 57°41' E 010°37'0 0.0
2017-Nov-12 01:27N 57°41' E 010°37'0 0.0
2017-Nov-12 01:00N 57°41' E 010°37'0 0.1
2017-Nov-12 00:24N 57°41' E 010°37'0 0.0
2017-Nov-11 23:54N 57°41' E 010°37'0 0.6
2017-Nov-11 23:27N 57°41' E 010°37'1 2.5
2017-Nov-11 23:00N 57°42' E 010°37'0 0.1
2017-Nov-11 22:24N 57°42' E 010°37'0 0.0
2017-Nov-11 21:48N 57°42' E 010°37'0 0.1
2017-Nov-11 21:30N 57°42' E 010°37'0 0.2
2017-Nov-11 21:00N 57°42' E 010°37'0 0.6
2017-Nov-11 20:27N 57°42' E 010°38'0 0.0
2017-Nov-11 19:51N 57°42' E 010°38'0 0.1
2017-Nov-11 19:30N 57°42' E 010°38'0 0.2
2017-Nov-11 19:00N 57°42' E 010°38'0 0.8
2017-Nov-11 18:30N 57°42' E 010°38'0 0.0
2017-Nov-11 17:57N 57°42' E 010°38'0 0.0
2017-Nov-11 17:24N 57°42' E 010°38'0 0.0
2017-Nov-11 16:57N 57°42' E 010°38'0 0.0
2017-Nov-11 16:09N 57°42' E 010°38'0 0.1
2017-Nov-11 15:57N 57°42' E 010°38'0 0.0
2017-Nov-11 15:27N 57°42' E 010°38'0 0.0
2017-Nov-11 14:57N 57°42' E 010°38'0 0.1
2017-Nov-11 14:30N 57°42' E 010°38'1 1.1
2017-Nov-11 14:00N 57°42' E 010°38'0 0.8
2017-Nov-11 13:30N 57°42' E 010°39'0 0.4
2017-Nov-11 13:00N 57°42' E 010°39'2 4.4
2017-Nov-11 12:31N 57°43' E 010°35'0 0.0
2017-Nov-11 11:54N 57°43' E 010°35'0 0.0
2017-Nov-11 11:24N 57°43' E 010°35'0 0.0
2017-Nov-11 10:45N 57°43' E 010°35'0 0.0
2017-Nov-11 10:27N 57°43' E 010°35'0 0.0
2017-Nov-11 09:42N 57°43' E 010°35'0 0.0
2017-Nov-11 09:27N 57°43' E 010°35'0 0.0
2017-Nov-11 08:57N 57°43' E 010°35'0 0.0
2017-Nov-11 08:06N 57°43' E 010°35'0 0.0
2017-Nov-11 07:57N 57°43' E 010°35'0 0.0
2017-Nov-11 07:18N 57°43' E 010°35'0 0.0
2017-Nov-11 06:57N 57°43' E 010°35'0 0.0
2017-Nov-11 06:30N 57°43' E 010°35'1 1.2
2017-Nov-11 06:00N 57°42' E 010°36'0 0.0
2017-Nov-11 05:25N 57°42' E 010°36'0 0.0
2017-Nov-11 04:58N 57°42' E 010°36'0 0.0
2017-Nov-11 04:27N 57°42' E 010°36'0 0.0
2017-Nov-11 04:01N 57°42' E 010°36'0 0.0
2017-Nov-11 03:27N 57°42' E 010°36'0 0.0
2017-Nov-11 02:52N 57°42' E 010°36'0 0.0
2017-Nov-11 02:25N 57°42' E 010°36'1 1.7
2017-Nov-11 02:00N 57°42' E 010°37'1 1.6
2017-Nov-11 01:31N 57°42' E 010°38'0 0.6
2017-Nov-11 01:01N 57°42' E 010°39'2 4.4
2017-Nov-11 00:30N 57°43' E 010°42'5 9.1
2017-Nov-11 00:00N 57°47' E 010°45'510.2
2017-Nov-10 23:30N 57°52' E 010°42'5 9.9
2017-Nov-10 23:00N 57°57' E 010°38'5 9.8
2017-Nov-10 22:27N 58°02' E 010°34'3910.3
2017-Nov-10 18:42N 58°37' E 010°05'210.7
2017-Nov-10 18:28N 58°39' E 010°03'510.7
2017-Nov-10 18:00N 58°44' E 009°58'510.3
2017-Nov-10 17:30N 58°48' E 009°54'510.4
2017-Nov-10 17:00N 58°53' E 009°50'3 5.1
2017-Nov-10 16:29N 58°56' E 009°51'4 8.8
2017-Nov-10 16:00N 58°56' E 009°60'4 7.7
2017-Nov-10 15:30N 58°59' E 010°04'4 7.5
2017-Nov-10 15:00N 59°02' E 010°03'0 0.0
2017-Nov-10 14:30N 59°02' E 010°03'0 0.0
2017-Nov-10 14:00N 59°02' E 010°03'0 0.0
2017-Nov-10 13:30N 59°02' E 010°03'0 0.0
2017-Nov-10 13:00N 59°02' E 010°03'0 0.0
2017-Nov-10 12:30N 59°02' E 010°03'0 0.0
2017-Nov-10 12:00N 59°02' E 010°03'0 0.0
2017-Nov-10 11:30N 59°02' E 010°03'0 0.0
2017-Nov-10 11:00N 59°02' E 010°03'0 0.0
2017-Nov-10 10:30N 59°02' E 010°03'0 0.0
2017-Nov-10 10:00N 59°02' E 010°03'0 0.0
2017-Nov-10 09:30N 59°02' E 010°03'0 0.0
2017-Nov-10 09:00N 59°02' E 010°03'0 0.0
2017-Nov-10 08:30N 59°02' E 010°03'0 0.1
2017-Nov-10 08:00N 59°03' E 010°03'3 5.5
2017-Nov-10 07:30N 58°60' E 010°04'4 8.8
2017-Nov-10 07:01N 58°56' E 010°02'510.2
2017-Nov-10 06:31N 58°56' E 009°52'2 4.0
2017-Nov-10 06:00N 58°54' E 009°50'4 9.0
2017-Nov-10 05:31N 58°50' E 009°53'4 9.0
2017-Nov-10 05:01N 58°46' E 009°57'5 9.0
2017-Nov-10 04:30N 58°42' E 010°00'5 8.9
2017-Nov-10 04:00N 58°38' E 010°04'  
Track history (hours):
 
Tides and Currents Weather Stations Pressure Air Temp Water Temp Dewpoint Dewpoint Depression Visibility Wind Speed Wind Dir Waves Ship Positions

Antares

Last reported at 2017-Nov-20 00:28 UTC. Time now 2017-Nov-20 14:02 UTC.
Position N 57°42' E 010°38'.

Length 79 m; draft 5.6 m.

Type: Ship. MMSI: 218777000.

Date/timePositionNaut miles runAvg speedWind from/ knotsBaromVisibWave heightAir tempDewpointWater temp
2017-Nov-20 00:28N 57°42' E 010°38'0 0.1
2017-Nov-19 23:31N 57°41' E 010°38'0 0.1
2017-Nov-19 23:19N 57°41' E 010°38'0 0.1
2017-Nov-19 22:58N 57°41' E 010°38'0 0.0
2017-Nov-19 22:25N 57°41' E 010°38'0 0.0
2017-Nov-19 21:55N 57°41' E 010°38'0 0.0
2017-Nov-19 21:22N 57°41' E 010°38'0 0.0
2017-Nov-19 20:49N 57°41' E 010°38'0 0.0
2017-Nov-19 20:28N 57°41' E 010°38'0 0.0
2017-Nov-19 19:52N 57°41' E 010°38'0 0.0
2017-Nov-19 19:28N 57°41' E 010°38'0 0.0
2017-Nov-19 18:58N 57°41' E 010°38'0 0.0
2017-Nov-19 18:22N 57°41' E 010°38'0 0.0
2017-Nov-19 17:55N 57°41' E 010°38'0 0.0
2017-Nov-19 17:25N 57°41' E 010°38'0 0.0
2017-Nov-19 16:13N 57°41' E 010°38'0 0.1
2017-Nov-19 15:52N 57°41' E 010°38'0 0.0
2017-Nov-19 15:25N 57°41' E 010°38'0 0.0
2017-Nov-19 14:58N 57°41' E 010°38'0 0.1
2017-Nov-19 14:30N 57°41' E 010°38'1 1.2
2017-Nov-19 14:00N 57°41' E 010°36'1 1.7
2017-Nov-19 13:28N 57°42' E 010°35'0 0.0
2017-Nov-19 12:58N 57°42' E 010°35'0 0.0
2017-Nov-19 11:58N 57°42' E 010°35'0 0.0
2017-Nov-19 11:22N 57°42' E 010°35'0 0.0
2017-Nov-19 10:52N 57°42' E 010°35'0 0.0
2017-Nov-19 10:19N 57°42' E 010°35'0 0.0
2017-Nov-19 09:55N 57°42' E 010°35'0 0.0
2017-Nov-19 09:28N 57°42' E 010°35'0 0.0
2017-Nov-19 08:46N 57°42' E 010°35'0 0.0
2017-Nov-19 08:28N 57°42' E 010°35'0 0.2
2017-Nov-19 07:57N 57°42' E 010°35'2 3.4
2017-Nov-19 07:30N 57°41' E 010°38'1 2.8
2017-Nov-19 07:00N 57°42' E 010°35'0 0.2
2017-Nov-19 06:26N 57°42' E 010°35'0 0.0
2017-Nov-19 05:53N 57°42' E 010°35'0 0.0
2017-Nov-19 05:29N 57°42' E 010°35'0 0.0
2017-Nov-19 04:56N 57°42' E 010°35'0 0.0
2017-Nov-19 04:29N 57°42' E 010°35'0 0.0
2017-Nov-19 03:56N 57°42' E 010°35'0 0.0
2017-Nov-19 03:23N 57°42' E 010°35'0 0.0
2017-Nov-19 02:59N 57°42' E 010°35'0 0.0
2017-Nov-19 02:29N 57°42' E 010°35'0 0.0
2017-Nov-19 01:56N 57°42' E 010°35'0 0.1
2017-Nov-19 01:20N 57°42' E 010°35'0 0.1
2017-Nov-19 00:59N 57°42' E 010°35'0 0.0
2017-Nov-19 00:26N 57°42' E 010°35'0 0.0
2017-Nov-18 23:59N 57°42' E 010°35'0 0.0
2017-Nov-18 23:17N 57°42' E 010°35'0 0.0
2017-Nov-18 22:56N 57°42' E 010°35'0 0.0
2017-Nov-18 22:17N 57°42' E 010°35'0 0.0
2017-Nov-18 21:59N 57°42' E 010°35'0 0.0
2017-Nov-18 21:29N 57°42' E 010°35'0 0.0
2017-Nov-18 20:56N 57°42' E 010°35'0 0.0
2017-Nov-18 20:26N 57°42' E 010°35'0 0.0
2017-Nov-18 19:56N 57°42' E 010°35'0 0.0
2017-Nov-18 19:29N 57°42' E 010°35'0 0.0
2017-Nov-18 18:56N 57°42' E 010°35'0 0.0
2017-Nov-18 18:29N 57°42' E 010°35'0 0.0
2017-Nov-18 17:56N 57°42' E 010°35'0 0.0
2017-Nov-18 17:26N 57°42' E 010°35'0 0.0
2017-Nov-18 16:59N 57°42' E 010°35'0 0.0
2017-Nov-18 16:26N 57°42' E 010°35'0 0.0
2017-Nov-18 15:59N 57°42' E 010°35'0 0.0
2017-Nov-18 15:23N 57°42' E 010°35'0 0.2
2017-Nov-18 14:56N 57°42' E 010°35'0 0.0
2017-Nov-18 14:29N 57°42' E 010°35'0 0.0
2017-Nov-18 13:44N 57°42' E 010°35'0 0.0
2017-Nov-18 13:29N 57°42' E 010°35'0 0.0
2017-Nov-18 12:59N 57°42' E 010°35'0 0.0
2017-Nov-18 12:26N 57°42' E 010°35'0 0.1
2017-Nov-18 11:51N 57°42' E 010°35'0 1.1
2017-Nov-18 11:26N 57°42' E 010°36'0 0.0
2017-Nov-18 10:56N 57°42' E 010°36'0 0.0
2017-Nov-18 10:29N 57°42' E 010°36'0 0.0
2017-Nov-18 09:56N 57°42' E 010°36'0 0.0
2017-Nov-18 09:23N 57°42' E 010°36'0 0.1
2017-Nov-18 09:00N 57°42' E 010°36'0 0.4
2017-Nov-18 08:24N 57°42' E 010°36'0 0.0
2017-Nov-18 08:00N 57°42' E 010°36'0 0.0
2017-Nov-18 07:31N 57°42' E 010°36'0 0.0
2017-Nov-18 06:45N 57°42' E 010°36'1 3.8
2017-Nov-18 06:30N 57°42' E 010°37'3 5.0
2017-Nov-18 05:57N 57°42' E 010°42'0 0.0
2017-Nov-18 05:30N 57°42' E 010°42'0 0.0
2017-Nov-18 04:57N 57°42' E 010°42'0 0.0
2017-Nov-18 03:48N 57°42' E 010°42'0 0.1
2017-Nov-18 03:21N 57°42' E 010°42'0 0.0
2017-Nov-18 02:54N 57°42' E 010°42'0 0.1
2017-Nov-18 02:30N 57°42' E 010°42'0 0.0
2017-Nov-18 02:00N 57°42' E 010°42'0 0.0
2017-Nov-18 01:17N 57°42' E 010°42'0 0.2
2017-Nov-18 01:00N 57°42' E 010°43'1 1.8
2017-Nov-18 00:30N 57°42' E 010°41'3 4.8
2017-Nov-17 23:55N 57°42' E 010°36'0 0.0
2017-Nov-17 23:19N 57°42' E 010°36'0 0.2
2017-Nov-17 22:49N 57°42' E 010°35'0 0.0
2017-Nov-17 22:25N 57°42' E 010°35'0 0.0
2017-Nov-17 21:58N 57°42' E 010°35'0 0.0
2017-Nov-17 21:13N 57°42' E 010°35'0 0.0
2017-Nov-17 20:55N 57°42' E 010°35'0 0.0
2017-Nov-17 20:25N 57°42' E 010°35'0 0.0
2017-Nov-17 19:43N 57°42' E 010°35'0 0.0
2017-Nov-17 19:25N 57°42' E 010°35'0 0.0
2017-Nov-17 18:58N 57°42' E 010°35'0 0.0
2017-Nov-17 18:25N 57°42' E 010°35'0 0.0
2017-Nov-17 17:55N 57°42' E 010°35'0 0.0
2017-Nov-17 17:16N 57°42' E 010°35'0 0.0
2017-Nov-17 16:58N 57°42' E 010°35'0 0.0
2017-Nov-17 16:28N 57°42' E 010°35'0 0.0
2017-Nov-17 15:58N 57°42' E 010°35'0 0.0
2017-Nov-17 15:25N 57°42' E 010°35'0 0.0
2017-Nov-17 14:55N 57°42' E 010°35'0 0.0
2017-Nov-17 14:28N 57°42' E 010°35'0 0.0
2017-Nov-17 13:58N 57°42' E 010°35'0 0.1
2017-Nov-17 13:30N 57°42' E 010°35'1 1.9
2017-Nov-17 13:00N 57°43' E 010°35'0 0.0
2017-Nov-17 12:17N 57°43' E 010°35'0 0.0
2017-Nov-17 11:59N 57°43' E 010°35'0 0.0
2017-Nov-17 11:29N 57°43' E 010°35'0 0.0
2017-Nov-17 10:53N 57°43' E 010°35'0 0.0
2017-Nov-17 10:26N 57°43' E 010°35'0 0.0
2017-Nov-17 09:59N 57°43' E 010°35'0 0.0
2017-Nov-17 09:29N 57°43' E 010°35'0 0.0
2017-Nov-17 08:59N 57°43' E 010°35'0 0.0
2017-Nov-17 08:23N 57°43' E 010°35'0 0.0
2017-Nov-17 07:59N 57°43' E 010°35'0 0.0
2017-Nov-17 07:29N 57°43' E 010°35'0 0.0
2017-Nov-17 06:59N 57°43' E 010°35'0 0.0
2017-Nov-17 06:29N 57°43' E 010°35'0 0.0
2017-Nov-17 05:56N 57°43' E 010°35'0 0.0
2017-Nov-17 05:29N 57°43' E 010°35'0 0.0
2017-Nov-17 04:59N 57°43' E 010°35'0 0.0
2017-Nov-17 04:20N 57°43' E 010°35'0 0.0
2017-Nov-17 03:53N 57°43' E 010°35'0 0.0
2017-Nov-17 03:26N 57°43' E 010°35'0 0.0
2017-Nov-17 02:53N 57°43' E 010°35'0 0.0
2017-Nov-17 02:23N 57°43' E 010°35'0 0.0
2017-Nov-17 01:59N 57°43' E 010°35'0 0.0
2017-Nov-17 01:14N 57°43' E 010°35'0 0.0
2017-Nov-17 00:59N 57°43' E 010°35'0 0.0
2017-Nov-17 00:26N 57°43' E 010°35'0 0.0
2017-Nov-16 23:53N 57°43' E 010°35'0 0.0
2017-Nov-16 23:29N 57°43' E 010°35'0 0.0
2017-Nov-16 22:59N 57°43' E 010°35'0 0.0
2017-Nov-16 22:29N 57°43' E 010°35'0 0.0
2017-Nov-16 21:41N 57°43' E 010°35'0 0.0
2017-Nov-16 21:29N 57°43' E 010°35'0 0.0
2017-Nov-16 20:59N 57°43' E 010°35'0 0.0
2017-Nov-16 20:11N 57°43' E 010°35'0 0.0
2017-Nov-16 19:59N 57°43' E 010°35'0 0.0
2017-Nov-16 19:26N 57°43' E 010°35'0 0.0
2017-Nov-16 18:56N 57°43' E 010°35'0 0.0
2017-Nov-16 18:29N 57°43' E 010°35'0 0.0
2017-Nov-16 17:59N 57°43' E 010°35'0 0.0
2017-Nov-16 17:26N 57°43' E 010°35'0 0.0
2017-Nov-16 16:53N 57°43' E 010°35'0 0.0
2017-Nov-16 16:26N 57°43' E 010°35'0 0.0
2017-Nov-16 15:50N 57°43' E 010°35'0 0.0
2017-Nov-16 15:29N 57°43' E 010°35'0 0.0
2017-Nov-16 14:53N 57°43' E 010°35'0 0.0
2017-Nov-16 14:26N 57°43' E 010°35'0 0.0
2017-Nov-16 13:47N 57°43' E 010°35'0 0.0
2017-Nov-16 13:26N 57°43' E 010°35'0 0.0
2017-Nov-16 12:56N 57°43' E 010°35'0 0.0
2017-Nov-16 12:23N 57°43' E 010°35'0 0.0
2017-Nov-16 11:59N 57°43' E 010°35'0 0.0
2017-Nov-16 11:29N 57°43' E 010°35'0 0.0
2017-Nov-16 10:59N 57°43' E 010°35'0 0.0
2017-Nov-16 10:29N 57°43' E 010°35'0 0.0
2017-Nov-16 09:59N 57°43' E 010°35'0 0.0
2017-Nov-16 09:29N 57°43' E 010°35'0 0.0
2017-Nov-16 08:50N 57°43' E 010°35'0 0.0
2017-Nov-16 08:17N 57°43' E 010°35'0 0.0
2017-Nov-16 07:59N 57°43' E 010°35'0 0.0
2017-Nov-16 07:29N 57°43' E 010°35'0 0.0
2017-Nov-16 06:57N 57°43' E 010°35'1 1.6
2017-Nov-16 06:30N 57°42' E 010°36'1 1.9
2017-Nov-16 05:49N 57°41' E 010°36'0 0.0
2017-Nov-16 05:28N 57°41' E 010°36'0 0.0
2017-Nov-16 04:52N 57°41' E 010°36'0 0.0
2017-Nov-16 04:25N 57°41' E 010°36'0 0.0
2017-Nov-16 03:16N 57°41' E 010°36'0 0.0
2017-Nov-16 02:22N 57°41' E 010°36'0 0.1
2017-Nov-16 01:55N 57°41' E 010°36'1 1.5
2017-Nov-16 01:30N 57°41' E 010°37'1 1.0
2017-Nov-16 00:53N 57°41' E 010°38'0 0.0
2017-Nov-16 00:29N 57°41' E 010°38'0 0.0
2017-Nov-15 22:38N 57°41' E 010°38'0 0.0
2017-Nov-15 22:26N 57°41' E 010°39'0 0.0
2017-Nov-15 21:47N 57°41' E 010°38'0 0.0
2017-Nov-15 21:30N 57°41' E 010°39'1 1.9
2017-Nov-15 21:00N 57°40' E 010°37'0 0.1
2017-Nov-15 20:29N 57°40' E 010°37'0 0.0
2017-Nov-15 19:56N 57°40' E 010°37'0 0.0
2017-Nov-15 19:26N 57°40' E 010°37'0 0.0
2017-Nov-15 18:56N 57°40' E 010°37'0 0.0
2017-Nov-15 18:29N 57°40' E 010°37'0 0.0
2017-Nov-15 17:50N 57°40' E 010°37'0 0.0
2017-Nov-15 17:29N 57°40' E 010°37'0 0.0
2017-Nov-15 16:56N 57°40' E 010°37'0 0.0
2017-Nov-15 16:20N 57°40' E 010°37'0 0.0
2017-Nov-15 15:56N 57°40' E 010°37'0 0.0
2017-Nov-15 15:08N 57°40' E 010°37'0 0.0
2017-Nov-15 14:53N 57°40' E 010°37'0 0.0
2017-Nov-15 14:11N 57°40' E 010°37'0 0.1
2017-Nov-15 13:59N 57°40' E 010°37'0 0.0
2017-Nov-15 13:29N 57°40' E 010°37'1 2.4
2017-Nov-15 13:00N 57°40' E 010°39'0 0.0
2017-Nov-15 12:13N 57°40' E 010°39'0 0.0
2017-Nov-15 11:58N 57°40' E 010°39'0 0.0
2017-Nov-15 11:17N 57°40' E 010°39'0 0.6
2017-Nov-15 11:00N 57°41' E 010°39'1 1.0
2017-Nov-15 10:17N 57°41' E 010°38'0 0.0
2017-Nov-15 09:56N 57°41' E 010°38'0 0.0
2017-Nov-15 08:59N 57°41' E 010°38'0 0.0
2017-Nov-15 08:29N 57°41' E 010°38'0 0.5
2017-Nov-15 08:00N 57°41' E 010°39'1 1.2
2017-Nov-15 07:30N 57°42' E 010°39'1 1.4
2017-Nov-15 07:00N 57°42' E 010°37'2 2.6
2017-Nov-15 06:25N 57°43' E 010°35'0 0.0
2017-Nov-15 05:49N 57°43' E 010°35'0 0.0
2017-Nov-15 05:07N 57°43' E 010°35'0 0.0
2017-Nov-15 04:58N 57°43' E 010°35'0 0.0
2017-Nov-15 04:19N 57°43' E 010°35'0 0.0
2017-Nov-15 03:58N 57°43' E 010°35'0 0.0
2017-Nov-15 03:28N 57°43' E 010°35'0 0.0
2017-Nov-15 02:55N 57°43' E 010°35'0 0.0
2017-Nov-15 02:25N 57°43' E 010°35'0 0.0
2017-Nov-15 01:58N 57°43' E 010°35'0 0.0
2017-Nov-15 01:28N 57°43' E 010°35'0 0.0
2017-Nov-15 00:49N 57°43' E 010°35'0 0.0
2017-Nov-15 00:28N 57°43' E 010°35'0 0.0
2017-Nov-14 23:55N 57°43' E 010°35'0 0.0
2017-Nov-14 22:22N 57°43' E 010°35'0 0.0
2017-Nov-14 21:58N 57°43' E 010°35'0 0.0
2017-Nov-14 21:28N 57°43' E 010°35'0 0.0
2017-Nov-14 20:55N 57°43' E 010°35'0 0.0
2017-Nov-14 20:25N 57°43' E 010°35'0 0.0
2017-Nov-14 19:58N 57°43' E 010°35'0 0.0
2017-Nov-14 19:28N 57°43' E 010°35'0 0.0
2017-Nov-14 18:52N 57°43' E 010°35'0 0.0
2017-Nov-14 18:25N 57°43' E 010°35'0 0.0
2017-Nov-14 17:46N 57°43' E 010°35'0 0.0
2017-Nov-14 17:28N 57°43' E 010°35'0 0.0
2017-Nov-14 16:52N 57°43' E 010°35'0 0.0
2017-Nov-14 16:28N 57°43' E 010°35'0 0.0
2017-Nov-14 15:37N 57°43' E 010°35'0 0.0
2017-Nov-14 15:22N 57°43' E 010°35'0 0.0
2017-Nov-14 14:55N 57°43' E 010°35'0 0.0
2017-Nov-14 14:25N 57°43' E 010°35'0 0.0
2017-Nov-14 13:07N 57°43' E 010°35'0 0.0
2017-Nov-14 12:43N 57°43' E 010°35'0 0.0
2017-Nov-14 12:25N 57°43' E 010°35'0 0.0
2017-Nov-14 11:58N 57°43' E 010°35'0 0.0
2017-Nov-14 11:25N 57°43' E 010°35'0 0.0
2017-Nov-14 10:55N 57°43' E 010°35'0 0.0
2017-Nov-14 10:22N 57°43' E 010°35'0 0.0
2017-Nov-14 09:52N 57°43' E 010°35'0 0.0
2017-Nov-14 09:04N 57°43' E 010°35'0 0.0
2017-Nov-14 08:55N 57°43' E 010°35'0 0.0
2017-Nov-14 08:22N 57°43' E 010°35'0 0.0
2017-Nov-14 07:58N 57°43' E 010°35'0 0.0
2017-Nov-14 07:22N 57°43' E 010°35'0 0.1
2017-Nov-14 07:00N 57°43' E 010°35'1 1.9
2017-Nov-14 06:30N 57°42' E 010°37'0 0.7
2017-Nov-14 05:54N 57°42' E 010°36'0 0.0
2017-Nov-14 05:30N 57°42' E 010°36'0 0.0
2017-Nov-14 05:00N 57°42' E 010°36'0 0.1
2017-Nov-14 04:21N 57°42' E 010°36'1 2.1
2017-Nov-14 04:00N 57°41' E 010°37'0 0.0
2017-Nov-14 03:21N 57°41' E 010°37'0 0.0
2017-Nov-14 03:00N 57°41' E 010°37'0 0.0
2017-Nov-14 02:12N 57°41' E 010°37'0 0.0
2017-Nov-14 01:54N 57°41' E 010°37'0 0.0
2017-Nov-14 01:24N 57°41' E 010°37'0 0.3
2017-Nov-14 01:00N 57°41' E 010°37'1 1.2
2017-Nov-14 00:29N 57°41' E 010°36'0 0.0
2017-Nov-13 23:59N 57°41' E 010°36'0 0.0
2017-Nov-13 23:29N 57°41' E 010°36'0 0.0
2017-Nov-13 22:32N 57°41' E 010°36'0 0.0
2017-Nov-13 21:56N 57°41' E 010°36'0 0.0
2017-Nov-13 01:42N 57°41' E 010°36'0 0.0
2017-Nov-13 01:30N 57°41' E 010°36'0 0.0
2017-Nov-13 00:51N 57°41' E 010°36'0 0.0
2017-Nov-13 00:30N 57°41' E 010°36'0 0.0
2017-Nov-12 23:54N 57°41' E 010°36'0 0.0
2017-Nov-12 22:57N 57°41' E 010°36'0 0.0
2017-Nov-12 22:30N 57°41' E 010°36'0 0.0
2017-Nov-12 21:57N 57°41' E 010°36'0 0.0
2017-Nov-12 21:30N 57°41' E 010°36'0 0.0
2017-Nov-12 21:00N 57°41' E 010°36'1 1.2
2017-Nov-12 20:17N 57°40' E 010°37'0 0.1
2017-Nov-12 19:59N 57°40' E 010°37'0 0.0
2017-Nov-12 19:26N 57°40' E 010°37'0 0.1
2017-Nov-12 18:59N 57°40' E 010°37'0 0.1
2017-Nov-12 18:31N 57°40' E 010°37'1 1.6
2017-Nov-12 18:00N 57°41' E 010°36'0 0.1
2017-Nov-12 17:30N 57°41' E 010°36'0 0.0
2017-Nov-12 16:57N 57°41' E 010°36'0 0.0
2017-Nov-12 16:24N 57°41' E 010°36'0 0.0
2017-Nov-12 15:54N 57°41' E 010°36'0 0.0
2017-Nov-12 15:30N 57°41' E 010°36'0 0.1
2017-Nov-12 15:00N 57°41' E 010°36'0 0.9
2017-Nov-12 14:30N 57°41' E 010°36'0 0.1
2017-Nov-12 13:53N 57°41' E 010°36'0 0.1
2017-Nov-12 13:29N 57°41' E 010°36'0 0.0
2017-Nov-12 12:47N 57°41' E 010°36'0 0.0
2017-Nov-12 12:29N 57°41' E 010°36'0 0.0
2017-Nov-12 11:41N 57°41' E 010°36'0 0.0
2017-Nov-12 11:23N 57°41' E 010°36'0 0.0
2017-Nov-12 10:56N 57°41' E 010°36'0 0.0
2017-Nov-12 10:29N 57°41' E 010°36'0 0.0
2017-Nov-12 09:59N 57°41' E 010°36'0 0.0
2017-Nov-12 09:29N 57°41' E 010°36'0 0.0
2017-Nov-12 08:35N 57°41' E 010°36'0 0.0
2017-Nov-12 08:26N 57°41' E 010°36'0 0.0
2017-Nov-12 07:53N 57°41' E 010°36'0 0.0
2017-Nov-12 07:29N 57°41' E 010°36'0 0.0
2017-Nov-12 06:53N 57°41' E 010°36'0 0.0
2017-Nov-12 06:29N 57°41' E 010°36'0 0.0
2017-Nov-12 05:56N 57°41' E 010°36'0 0.0
2017-Nov-12 05:29N 57°41' E 010°36'0 0.0
2017-Nov-12 04:59N 57°41' E 010°36'0 0.1
2017-Nov-12 04:30N 57°41' E 010°36'1 1.3
2017-Nov-12 03:57N 57°41' E 010°37'0 0.0
2017-Nov-12 03:30N 57°41' E 010°37'0 0.0
2017-Nov-12 02:57N 57°41' E 010°37'0 0.0
2017-Nov-12 02:27N 57°41' E 010°37'0 0.0
2017-Nov-12 02:00N 57°41' E 010°37'0 0.0
2017-Nov-12 01:27N 57°41' E 010°37'0 0.0
2017-Nov-12 01:00N 57°41' E 010°37'0 0.1
2017-Nov-12 00:24N 57°41' E 010°37'0 0.0
2017-Nov-11 23:54N 57°41' E 010°37'0 0.6
2017-Nov-11 23:27N 57°41' E 010°37'1 2.5
2017-Nov-11 23:00N 57°42' E 010°37'0 0.1
2017-Nov-11 22:24N 57°42' E 010°37'0 0.0
2017-Nov-11 21:48N 57°42' E 010°37'0 0.1
2017-Nov-11 21:30N 57°42' E 010°37'0 0.2
2017-Nov-11 21:00N 57°42' E 010°37'0 0.6
2017-Nov-11 20:27N 57°42' E 010°38'0 0.0
2017-Nov-11 19:51N 57°42' E 010°38'0 0.1
2017-Nov-11 19:30N 57°42' E 010°38'0 0.2
2017-Nov-11 19:00N 57°42' E 010°38'0 0.8
2017-Nov-11 18:30N 57°42' E 010°38'0 0.0
2017-Nov-11 17:57N 57°42' E 010°38'0 0.0
2017-Nov-11 17:24N 57°42' E 010°38'0 0.0
2017-Nov-11 16:57N 57°42' E 010°38'0 0.0
2017-Nov-11 16:09N 57°42' E 010°38'0 0.1
2017-Nov-11 15:57N 57°42' E 010°38'0 0.0
2017-Nov-11 15:27N 57°42' E 010°38'0 0.0
2017-Nov-11 14:57N 57°42' E 010°38'0 0.1
2017-Nov-11 14:30N 57°42' E 010°38'1 1.1
2017-Nov-11 14:00N 57°42' E 010°38'0 0.8
2017-Nov-11 13:30N 57°42' E 010°39'0 0.4
2017-Nov-11 13:00N 57°42' E 010°39'2 4.4
2017-Nov-11 12:31N 57°43' E 010°35'0 0.0
2017-Nov-11 11:54N 57°43' E 010°35'0 0.0
2017-Nov-11 11:24N 57°43' E 010°35'0 0.0
2017-Nov-11 10:45N 57°43' E 010°35'0 0.0
2017-Nov-11 10:27N 57°43' E 010°35'0 0.0
2017-Nov-11 09:42N 57°43' E 010°35'0 0.0
2017-Nov-11 09:27N 57°43' E 010°35'0 0.0
2017-Nov-11 08:57N 57°43' E 010°35'0 0.0
2017-Nov-11 08:06N 57°43' E 010°35'0 0.0
2017-Nov-11 07:57N 57°43' E 010°35'0 0.0
2017-Nov-11 07:18N 57°43' E 010°35'0 0.0
2017-Nov-11 06:57N 57°43' E 010°35'0 0.0
2017-Nov-11 06:30N 57°43' E 010°35'1 1.2
2017-Nov-11 06:00N 57°42' E 010°36'0 0.0
2017-Nov-11 05:25N 57°42' E 010°36'0 0.0
2017-Nov-11 04:58N 57°42' E 010°36'0 0.0
2017-Nov-11 04:27N 57°42' E 010°36'0 0.0
2017-Nov-11 04:01N 57°42' E 010°36'0 0.0
2017-Nov-11 03:27N 57°42' E 010°36'0 0.0
2017-Nov-11 02:52N 57°42' E 010°36'0 0.0
2017-Nov-11 02:25N 57°42' E 010°36'1 1.7
2017-Nov-11 02:00N 57°42' E 010°37'1 1.6
2017-Nov-11 01:31N 57°42' E 010°38'0 0.6
2017-Nov-11 01:01N 57°42' E 010°39'2 4.4
2017-Nov-11 00:30N 57°43' E 010°42'5 9.1
2017-Nov-11 00:00N 57°47' E 010°45'510.2
2017-Nov-10 23:30N 57°52' E 010°42'5 9.9
2017-Nov-10 23:00N 57°57' E 010°38'5 9.8
2017-Nov-10 22:27N 58°02' E 010°34'3910.3
2017-Nov-10 18:42N 58°37' E 010°05'210.7
2017-Nov-10 18:28N 58°39' E 010°03'510.7
2017-Nov-10 18:00N 58°44' E 009°58'510.3
2017-Nov-10 17:30N 58°48' E 009°54'510.4
2017-Nov-10 17:00N 58°53' E 009°50'3 5.1
2017-Nov-10 16:29N 58°56' E 009°51'4 8.8
2017-Nov-10 16:00N 58°56' E 009°60'4 7.7
2017-Nov-10 15:30N 58°59' E 010°04'4 7.5
2017-Nov-10 15:00N 59°02' E 010°03'0 0.0
2017-Nov-10 14:30N 59°02' E 010°03'0 0.0
2017-Nov-10 14:00N 59°02' E 010°03'0 0.0
2017-Nov-10 13:30N 59°02' E 010°03'0 0.0
2017-Nov-10 13:00N 59°02' E 010°03'0 0.0
2017-Nov-10 12:30N 59°02' E 010°03'0 0.0
2017-Nov-10 12:00N 59°02' E 010°03'0 0.0
2017-Nov-10 11:30N 59°02' E 010°03'0 0.0
2017-Nov-10 11:00N 59°02' E 010°03'0 0.0
2017-Nov-10 10:30N 59°02' E 010°03'0 0.0
2017-Nov-10 10:00N 59°02' E 010°03'0 0.0
2017-Nov-10 09:30N 59°02' E 010°03'0 0.0
2017-Nov-10 09:00N 59°02' E 010°03'0 0.0
2017-Nov-10 08:30N 59°02' E 010°03'0 0.1
2017-Nov-10 08:00N 59°03' E 010°03'3 5.5
2017-Nov-10 07:30N 58°60' E 010°04'4 8.8
2017-Nov-10 07:01N 58°56' E 010°02'510.2
2017-Nov-10 06:31N 58°56' E 009°52'2 4.0
2017-Nov-10 06:00N 58°54' E 009°50'4 9.0
2017-Nov-10 05:31N 58°50' E 009°53'4 9.0
2017-Nov-10 05:01N 58°46' E 009°57'5 9.0
2017-Nov-10 04:30N 58°42' E 010°00'5 8.9
2017-Nov-10 04:00N 58°38' E 010°04'  

Dump ship's entire track history